Time;durP1;ratioP1;P1;durP2;ratioP2;P2;SDS_P1;SDS_P2;PMS_P1;PMS_P2;Temp;Humidity;BMP_temperature;BMP_pressure;BME280_temperature;BME280_humidity;BME280_pressure;Samples;Min_cycle;Max_cycle;Signal;HPM_P1;HPM_P2
2022/08/20 00:00:46;;;;;;;1.40;1.30;;;20.00;99.90;;;;;;5065046;28;20463;-82
2022/08/20 00:03:15;;;;;;;1.53;1.43;;;19.90;99.90;;;;;;5065168;28;21074;-82
2022/08/20 00:05:45;;;;;;;1.60;1.50;;;19.90;99.90;;;;;;5065153;28;20452;-82
2022/08/20 00:08:12;;;;;;;2.30;2.20;;;19.90;99.90;;;;;;5064698;28;20559;-83
2022/08/20 00:10:43;;;;;;;2.10;1.70;;;19.90;99.90;;;;;;5064376;28;20460;-82
2022/08/20 00:13:12;;;;;;;1.83;1.73;;;19.80;99.90;;;;;;5064918;28;20472;-82
2022/08/20 00:15:39;;;;;;;1.77;1.67;;;19.70;99.90;;;;;;5064452;28;20450;-82
2022/08/20 00:18:07;;;;;;;4.13;1.70;;;19.60;99.90;;;;;;5064503;28;20458;-82
2022/08/20 00:20:37;;;;;;;1.60;1.50;;;19.60;99.90;;;;;;5064557;28;20451;-82
2022/08/20 00:23:05;;;;;;;1.60;1.50;;;19.50;99.90;;;;;;5064778;28;20468;-82
2022/08/20 00:25:32;;;;;;;1.60;1.50;;;19.50;99.90;;;;;;5063947;28;20448;-82
2022/08/20 00:28:00;;;;;;;2.10;1.87;;;19.50;99.90;;;;;;5063637;28;20488;-82
2022/08/20 00:30:27;;;;;;;1.70;1.60;;;19.40;99.90;;;;;;5064379;28;20455;-82
2022/08/20 00:32:57;;;;;;;1.67;1.57;;;19.50;99.90;;;;;;5064268;28;20479;-82
2022/08/20 00:35:27;;;;;;;1.93;1.83;;;19.30;99.90;;;;;;5069168;28;20452;-81
2022/08/20 00:37:54;;;;;;;1.57;1.47;;;19.30;99.90;;;;;;5064446;28;20961;-82
2022/08/20 00:40:25;;;;;;;1.50;1.40;;;19.20;99.90;;;;;;5064724;28;20443;-82
2022/08/20 00:42:56;;;;;;;1.77;1.67;;;19.20;99.90;;;;;;5063229;28;20477;-82
2022/08/20 00:45:25;;;;;;;2.53;1.87;;;19.20;99.90;;;;;;5063917;28;20479;-82
2022/08/20 00:47:54;;;;;;;1.87;1.77;;;19.20;99.90;;;;;;5064246;28;20510;-82
2022/08/20 00:50:24;;;;;;;1.60;1.50;;;19.20;99.90;;;;;;5063274;28;20448;-82
2022/08/20 00:52:52;;;;;;;1.70;1.50;;;19.30;99.90;;;;;;5064320;28;20482;-82
2022/08/20 00:55:23;;;;;;;1.63;1.53;;;19.30;99.90;;;;;;5063725;28;20455;-79
2022/08/20 00:57:53;;;;;;;1.37;1.23;;;19.30;99.90;;;;;;5062915;28;20443;-79
2022/08/20 01:00:23;;;;;;;1.77;1.43;;;19.30;99.90;;;;;;5062961;28;20832;-80
2022/08/20 01:02:51;;;;;;;1.63;1.53;;;19.40;99.90;;;;;;5063196;28;20467;-80
2022/08/20 01:05:18;;;;;;;1.60;1.50;;;19.40;99.90;;;;;;5063417;28;20485;-80
2022/08/20 01:07:47;;;;;;;2.00;1.90;;;19.40;99.90;;;;;;5063410;28;20580;-79
2022/08/20 01:10:16;;;;;;;2.20;1.53;;;19.40;99.90;;;;;;5062858;28;20840;-79
2022/08/20 01:12:46;;;;;;;1.63;1.53;;;19.40;99.90;;;;;;5063016;28;20475;-79
2022/08/20 01:15:16;;;;;;;2.03;1.73;;;19.40;99.90;;;;;;5062566;28;20452;-82
2022/08/20 01:17:46;;;;;;;1.40;1.30;;;19.40;99.90;;;;;;5061603;28;20456;-79
2022/08/20 01:20:18;;;;;;;1.77;1.67;;;19.40;99.90;;;;;;5061915;28;20510;-80
2022/08/20 01:25:45;;;;;;;2.57;2.37;;;19.50;99.90;;;;;;5063573;28;20532;-79
2022/08/20 01:28:14;;;;;;;1.60;1.50;;;19.40;99.90;;;;;;5062863;28;20517;-80
2022/08/20 01:30:41;;;;;;;1.80;1.70;;;19.40;99.90;;;;;;5059605;28;20460;-79
2022/08/20 01:33:08;;;;;;;2.00;1.90;;;19.40;99.90;;;;;;5062350;28;20475;-80
2022/08/20 01:35:37;;;;;;;1.73;1.63;;;19.50;99.90;;;;;;5062568;28;20444;-80
2022/08/20 01:38:04;;;;;;;3.80;2.20;;;19.40;99.90;;;;;;5062574;28;20456;-80
2022/08/20 01:41:01;;;;;;;1.70;1.60;;;19.40;99.90;;;;;;5062568;28;20451;-80
2022/08/20 01:43:29;;;;;;;1.63;1.53;;;19.50;99.90;;;;;;5063165;28;20486;-80
2022/08/20 01:45:56;;;;;;;1.70;1.60;;;19.50;99.90;;;;;;5062115;28;20827;-80
2022/08/20 01:48:22;;;;;;;1.80;1.70;;;19.50;99.90;;;;;;5062459;28;20491;-79
2022/08/20 01:51:00;;;;;;;1.97;1.87;;;19.50;99.90;;;;;;5061699;28;20584;-80
2022/08/20 01:53:32;;;;;;;1.90;1.80;;;19.50;99.90;;;;;;5062216;28;20486;-80
2022/08/20 01:55:59;;;;;;;1.67;1.57;;;19.50;99.90;;;;;;5062479;28;20463;-80
2022/08/20 01:58:28;;;;;;;1.53;1.43;;;19.50;99.90;;;;;;5062017;28;20479;-80
2022/08/20 02:00:56;;;;;;;2.30;2.10;;;19.50;99.90;;;;;;5061199;28;20541;-80
2022/08/20 02:03:23;;;;;;;1.90;1.80;;;19.50;99.90;;;;;;5062154;28;20467;-79
2022/08/20 02:05:52;;;;;;;2.60;2.43;;;19.60;99.90;;;;;;5061581;28;20487;-80
2022/08/20 02:08:20;;;;;;;3.03;2.30;;;19.60;99.90;;;;;;5061470;28;20514;-79
2022/08/20 02:10:47;;;;;;;2.37;2.27;;;19.70;99.90;;;;;;5061212;28;20468;-79
2022/08/20 02:13:14;;;;;;;2.13;2.03;;;19.80;99.90;;;;;;5061638;28;20475;-80
2022/08/20 02:15:41;;;;;;;1.37;1.30;;;20.00;99.90;;;;;;5064098;28;20451;-80
2022/08/20 02:18:12;;;;;;;2.17;1.80;;;20.10;99.90;;;;;;5061326;28;20449;-80
2022/08/20 02:20:40;;;;;;;2.10;1.97;;;20.20;99.90;;;;;;5061087;28;20453;-80
2022/08/20 02:23:08;;;;;;;2.10;1.77;;;20.30;99.90;;;;;;5061515;28;21147;-80
2022/08/20 02:25:38;;;;;;;1.87;1.77;;;20.40;99.90;;;;;;5058411;28;20452;-79
2022/08/20 02:28:14;;;;;;;2.27;2.13;;;20.30;99.90;;;;;;5061377;28;20852;-80
2022/08/20 02:30:46;;;;;;;2.50;2.30;;;20.40;99.90;;;;;;5061021;28;20444;-80
2022/08/20 02:33:16;;;;;;;3.07;2.50;;;20.40;99.90;;;;;;5061672;28;20468;-80
2022/08/20 02:35:45;;;;;;;2.43;2.07;;;20.50;99.90;;;;;;5060647;28;20448;-80
2022/08/20 02:38:14;;;;;;;1.97;1.87;;;20.50;99.90;;;;;;5061314;28;20448;-80
2022/08/20 02:40:43;;;;;;;1.90;1.80;;;20.50;99.90;;;;;;5061229;28;20449;-80
2022/08/20 02:43:10;;;;;;;1.93;1.70;;;20.50;99.90;;;;;;5061027;28;20504;-80
2022/08/20 02:49:00;;;;;;;2.33;2.23;;;20.50;99.90;;;;;;5041741;28;20467;-80
2022/08/20 02:51:27;;;;;;;1.40;1.30;;;20.40;99.90;;;;;;5061060;28;20907;-80
2022/08/20 02:53:54;;;;;;;2.10;1.90;;;20.40;99.90;;;;;;5061419;28;20470;-80
2022/08/20 02:56:21;;;;;;;2.50;2.30;;;20.30;99.90;;;;;;5061783;28;20459;-80
2022/08/20 02:58:47;;;;;;;2.50;1.63;;;20.10;99.90;;;;;;5061366;28;20451;-80
2022/08/20 03:01:17;;;;;;;2.70;2.50;;;19.90;99.90;;;;;;5061162;28;20448;-80
2022/08/20 03:03:44;;;;;;;1.67;1.57;;;19.80;99.90;;;;;;5061326;28;20956;-80
2022/08/20 03:06:13;;;;;;;2.43;2.23;;;19.60;99.90;;;;;;5061352;28;20862;-80
2022/08/20 03:08:40;;;;;;;2.03;1.93;;;19.60;99.90;;;;;;5061446;28;20488;-80
2022/08/20 03:11:08;;;;;;;2.50;2.40;;;19.50;99.90;;;;;;5061696;28;20543;-80
2022/08/20 03:13:36;;;;;;;2.20;2.10;;;19.50;99.90;;;;;;5061607;28;20464;-80
2022/08/20 03:16:05;;;;;;;2.23;1.93;;;19.40;99.90;;;;;;5060865;28;20455;-80
2022/08/20 03:18:34;;;;;;;2.70;2.50;;;19.50;99.90;;;;;;5060618;28;20445;-80
2022/08/20 03:21:01;;;;;;;2.10;2.00;;;19.40;99.90;;;;;;5058168;28;20452;-80
2022/08/20 03:23:29;;;;;;;2.13;2.03;;;19.40;99.90;;;;;;5061158;28;20469;-80
2022/08/20 03:25:55;;;;;;;2.50;2.40;;;19.40;99.90;;;;;;5061374;28;20788;-79
2022/08/20 03:28:22;;;;;;;2.70;2.53;;;19.30;99.90;;;;;;5060409;28;20487;-80
2022/08/20 03:30:50;;;;;;;2.60;2.50;;;19.30;99.90;;;;;;5060811;28;20452;-79
2022/08/20 03:33:19;;;;;;;2.40;2.30;;;19.20;99.90;;;;;;5060967;28;20467;-78
2022/08/20 03:35:46;;;;;;;3.73;3.43;;;19.20;99.90;;;;;;5060178;28;20443;-78
2022/08/20 03:38:14;;;;;;;2.80;2.60;;;19.20;99.90;;;;;;5059821;28;20447;-79
2022/08/20 03:40:42;;;;;;;2.53;2.43;;;19.10;99.90;;;;;;5060900;28;20449;-79
2022/08/20 03:43:09;;;;;;;2.90;2.70;;;19.10;99.90;;;;;;5060252;28;20480;-80
2022/08/20 03:45:38;;;;;;;3.20;3.00;;;19.10;99.90;;;;;;5063623;28;20450;-80
2022/08/20 03:48:07;;;;;;;3.00;2.80;;;19.10;99.90;;;;;;5064022;28;20454;-79
2022/08/20 03:50:35;;;;;;;3.37;2.53;;;19.00;99.90;;;;;;5064340;28;20450;-80
2022/08/20 03:53:02;;;;;;;2.97;2.77;;;19.10;99.90;;;;;;5064558;28;20482;-80
2022/08/20 03:55:30;;;;;;;3.17;2.97;;;19.10;99.90;;;;;;5064761;28;20447;-79
2022/08/20 03:58:01;;;;;;;5.17;3.43;;;19.00;99.90;;;;;;5063333;28;20444;-80
2022/08/20 04:00:31;;;;;;;3.33;3.03;;;19.00;99.90;;;;;;5063824;28;20455;-80
2022/08/20 04:02:59;;;;;;;4.20;3.73;;;19.10;99.90;;;;;;5064154;28;20467;-80
2022/08/20 04:05:26;;;;;;;3.73;3.53;;;19.10;99.90;;;;;;5063219;28;20818;-80
2022/08/20 04:07:53;;;;;;;3.97;3.67;;;19.10;99.90;;;;;;5063159;28;20446;-79
2022/08/20 04:10:20;;;;;;;4.00;3.70;;;19.10;99.90;;;;;;5062479;28;20490;-80
2022/08/20 04:12:47;;;;;;;3.30;3.20;;;19.20;99.90;;;;;;5063656;28;20471;-80
2022/08/20 04:15:17;;;;;;;3.60;3.40;;;19.30;99.90;;;;;;5060180;28;20789;-78
2022/08/20 04:17:47;;;;;;;3.10;3.00;;;19.40;99.90;;;;;;5062989;28;20458;-80
2022/08/20 04:20:17;;;;;;;3.43;3.23;;;19.50;99.90;;;;;;5063021;28;20448;-80
2022/08/20 04:22:45;;;;;;;3.70;3.50;;;19.50;99.90;;;;;;5062976;28;20503;-80
2022/08/20 04:25:11;;;;;;;3.90;3.57;;;19.50;99.90;;;;;;5063700;28;20452;-80
2022/08/20 04:27:39;;;;;;;4.07;3.87;;;19.50;99.90;;;;;;5062936;28;20451;-80
2022/08/20 04:30:10;;;;;;;4.30;4.00;;;19.50;99.90;;;;;;5062521;28;20484;-80
2022/08/20 04:32:40;;;;;;;4.20;3.97;;;19.60;99.90;;;;;;5076957;22;20495;-83
2022/08/20 04:35:10;;;;;;;3.67;3.47;;;19.60;99.90;;;;;;5059642;28;20452;-83
2022/08/20 04:37:38;;;;;;;5.33;4.93;;;19.60;99.90;;;;;;5060062;28;20442;-83
2022/08/20 04:42:51;;;;;;;4.13;3.80;;;19.50;99.90;;;;;;5057325;28;20515;-83
2022/08/20 04:45:18;;;;;;;4.00;3.70;;;19.40;99.90;;;;;;5039966;28;20467;-83
2022/08/20 04:47:46;;;;;;;3.70;3.50;;;19.50;99.90;;;;;;5040495;28;20472;-83
2022/08/20 04:50:14;;;;;;;3.80;3.60;;;19.50;99.90;;;;;;5042276;28;20499;-84
2022/08/20 04:52:41;;;;;;;3.33;3.13;;;19.50;99.90;;;;;;5060638;28;20482;-84
2022/08/20 04:55:09;;;;;;;4.33;3.93;;;19.50;99.90;;;;;;5060040;28;20567;-81
2022/08/20 04:57:37;;;;;;;3.87;3.67;;;19.50;99.90;;;;;;5058810;28;20455;-84
2022/08/20 05:00:06;;;;;;;3.93;3.57;;;19.70;99.90;;;;;;5059641;28;20795;-84
2022/08/20 05:02:34;;;;;;;3.90;3.70;;;19.60;99.90;;;;;;5060006;28;20471;-84
2022/08/20 05:05:02;;;;;;;4.10;3.90;;;19.70;99.90;;;;;;5065930;28;20452;-83
2022/08/20 05:07:28;;;;;;;4.40;4.00;;;19.80;99.90;;;;;;5070181;28;20453;-83
2022/08/20 05:09:55;;;;;;;3.97;3.77;;;19.90;99.90;;;;;;5051568;28;20489;-83
2022/08/20 05:12:22;;;;;;;4.27;3.87;;;20.00;99.90;;;;;;5048979;28;20473;-84
2022/08/20 05:14:49;;;;;;;4.70;4.40;;;20.10;99.90;;;;;;5064491;28;20467;-84
2022/08/20 05:17:16;;;;;;;4.17;3.97;;;20.00;99.90;;;;;;5069398;28;20462;-85
2022/08/20 05:19:45;;;;;;;4.67;4.30;;;20.00;99.90;;;;;;5067390;28;20452;-83
2022/08/20 05:22:13;;;;;;;4.57;4.27;;;20.10;99.90;;;;;;5069423;28;20468;-84
2022/08/20 05:24:40;;;;;;;4.10;3.77;;;20.00;99.90;;;;;;5056864;28;20459;-84
2022/08/20 05:27:08;;;;;;;3.60;3.40;;;20.00;99.90;;;;;;5050231;28;20460;-84
2022/08/20 05:29:35;;;;;;;4.23;4.03;;;20.00;99.90;;;;;;5068197;28;20479;-83
2022/08/20 05:32:01;;;;;;;4.20;3.93;;;20.00;99.90;;;;;;5068931;28;20487;-83
2022/08/20 05:34:28;;;;;;;4.50;4.20;;;19.90;99.90;;;;;;5068589;28;20456;-83
2022/08/20 05:36:55;;;;;;;4.23;3.93;;;19.90;99.90;;;;;;5056663;28;20460;-83
2022/08/20 05:39:23;;;;;;;4.80;4.50;;;20.00;99.90;;;;;;5049891;28;20452;-83
2022/08/20 05:41:50;;;;;;;4.13;3.83;;;20.00;99.90;;;;;;5060655;28;20461;-84
2022/08/20 05:44:18;;;;;;;4.27;3.90;;;20.00;99.90;;;;;;5068805;28;20455;-84
2022/08/20 05:46:47;;;;;;;4.57;4.20;;;20.00;99.90;;;;;;5065041;28;20538;-85
2022/08/20 05:49:18;;;;;;;5.50;5.17;;;20.00;99.90;;;;;;5065679;28;20487;-85
2022/08/20 05:51:45;;;;;;;4.97;4.63;;;20.00;99.90;;;;;;5056755;28;20465;-85
2022/08/20 05:54:13;;;;;;;4.83;4.60;;;20.10;99.90;;;;;;5055746;28;20486;-84
2022/08/20 05:56:41;;;;;;;4.47;4.07;;;20.00;99.90;;;;;;5067224;28;20456;-85
2022/08/20 05:59:09;;;;;;;4.70;4.30;;;20.00;99.90;;;;;;5057974;28;20441;-84
2022/08/20 06:01:38;;;;;;;4.30;4.00;;;20.00;99.90;;;;;;5046318;28;20480;-84
2022/08/20 06:06:50;;;;;;;4.30;4.00;;;20.00;99.90;;;;;;5066040;28;20435;-85
2022/08/20 06:09:19;;;;;;;4.00;3.80;;;20.10;99.90;;;;;;5049684;28;20492;-85
2022/08/20 06:11:47;;;;;;;4.33;4.03;;;20.10;99.90;;;;;;5046924;28;20445;-85
2022/08/20 06:14:15;;;;;;;5.57;5.03;;;20.20;99.90;;;;;;5046152;28;20454;-84
2022/08/20 06:16:42;;;;;;;4.40;4.10;;;20.30;99.90;;;;;;5047974;28;20443;-84
2022/08/20 06:19:09;;;;;;;4.83;4.50;;;20.20;99.90;;;;;;5046723;28;20447;-85
2022/08/20 06:21:36;;;;;;;4.73;4.43;;;20.20;99.90;;;;;;5047365;28;20436;-84
2022/08/20 06:24:03;;;;;;;5.53;5.13;;;20.30;99.90;;;;;;5046057;28;20812;-84
2022/08/20 06:26:30;;;;;;;4.50;4.20;;;20.40;99.90;;;;;;5046138;28;20453;-82
2022/08/20 06:28:59;;;;;;;5.03;4.70;;;20.40;99.90;;;;;;5054807;28;20501;-84
2022/08/20 06:31:26;;;;;;;5.03;4.63;;;20.40;99.90;;;;;;5065974;28;20457;-85
2022/08/20 06:33:52;;;;;;;5.73;4.57;;;20.50;99.90;;;;;;5059370;28;20481;-84
2022/08/20 06:36:19;;;;;;;4.80;4.40;;;20.60;99.90;;;;;;5065358;28;20448;-82
2022/08/20 06:38:46;;;;;;;4.97;4.57;;;20.90;99.90;;;;;;5064732;28;20962;-83
2022/08/20 06:41:13;;;;;;;5.57;5.17;;;20.90;99.90;;;;;;5066345;28;20453;-83
2022/08/20 06:43:40;;;;;;;5.47;4.97;;;20.90;99.90;;;;;;5058871;28;20478;-83
2022/08/20 06:46:08;;;;;;;4.93;4.63;;;20.90;99.90;;;;;;5041347;28;20456;-83
2022/08/20 06:48:35;;;;;;;9.93;7.30;;;21.00;99.90;;;;;;5042170;28;20454;-83
2022/08/20 06:51:03;;;;;;;4.87;4.57;;;21.10;99.90;;;;;;5045619;28;20493;-82
2022/08/20 06:53:29;;;;;;;4.73;4.43;;;21.10;99.90;;;;;;5059966;28;20581;-82
2022/08/20 06:55:58;;;;;;;4.00;3.70;;;21.00;99.90;;;;;;5044122;28;20464;-82
2022/08/20 06:58:25;;;;;;;4.50;4.20;;;21.00;99.90;;;;;;5049122;28;20540;-81
2022/08/20 07:00:51;;;;;;;4.03;3.73;;;20.90;99.90;;;;;;5059184;28;20445;-82
2022/08/20 07:03:19;;;;;;;4.43;4.13;;;20.70;99.90;;;;;;5068295;28;20465;-84
2022/08/20 07:05:52;;;;;;;4.50;4.20;;;20.60;99.90;;;;;;5056716;28;20451;-86
2022/08/20 07:08:20;;;;;;;4.50;4.07;;;20.60;99.90;;;;;;5048887;28;20969;-85
2022/08/20 07:10:47;;;;;;;5.03;4.63;;;20.60;99.90;;;;;;5047021;28;20484;-85
2022/08/20 07:13:15;;;;;;;4.60;4.37;;;20.70;99.90;;;;;;5047267;28;20481;-86
2022/08/20 07:15:42;;;;;;;5.53;5.03;;;20.80;99.90;;;;;;5047307;28;20454;-85
2022/08/20 07:18:11;;;;;;;4.37;4.07;;;20.70;99.90;;;;;;5047975;28;20854;-85
2022/08/20 07:20:40;;;;;;;5.93;4.27;;;20.70;99.90;;;;;;5053931;28;20448;-84
2022/08/20 07:23:10;;;;;;;3.73;3.43;;;20.80;99.90;;;;;;5053947;28;20469;-84
2022/08/20 07:25:36;;;;;;;4.10;3.90;;;21.00;99.90;;;;;;5053554;28;20457;-85
2022/08/20 07:28:05;;;;;;;4.23;3.93;;;21.10;99.90;;;;;;5053107;28;20449;-84
2022/08/20 07:33:17;;;;;;;3.97;3.67;;;21.20;99.90;;;;;;5052335;28;20491;-83
2022/08/20 07:35:47;;;;;;;4.57;4.17;;;21.30;99.90;;;;;;5052745;28;20452;-83
2022/08/20 07:38:17;;;;;;;5.47;4.00;;;21.30;99.90;;;;;;5052804;28;20454;-83
2022/08/20 07:40:47;;;;;;;4.20;3.90;;;21.30;99.90;;;;;;5052681;28;20469;-83
2022/08/20 07:43:15;;;;;;;4.63;4.03;;;21.50;99.90;;;;;;5052881;28;20574;-83
2022/08/20 07:45:42;;;;;;;3.63;3.30;;;21.70;99.90;;;;;;5052770;28;20458;-83
2022/08/20 07:48:12;;;;;;;4.93;4.53;;;21.80;99.90;;;;;;5052661;28;20447;-83
2022/08/20 07:50:40;;;;;;;3.50;3.30;;;21.70;99.90;;;;;;5052606;28;20861;-83
2022/08/20 07:53:08;;;;;;;4.13;3.83;;;21.90;99.90;;;;;;5052897;28;20467;-83
2022/08/20 07:55:35;;;;;;;4.23;3.93;;;22.00;99.90;;;;;;5053256;28;20455;-83
2022/08/20 07:58:09;;;;;;;3.83;3.53;;;22.10;99.90;;;;;;5051594;28;20457;-83
2022/08/20 08:00:36;;;;;;;3.40;3.10;;;22.20;99.90;;;;;;5052691;28;20443;-83
2022/08/20 08:03:03;;;;;;;4.37;4.07;;;22.10;99.90;;;;;;5052665;28;20565;-83
2022/08/20 08:05:31;;;;;;;3.80;3.50;;;22.10;99.90;;;;;;5052364;28;20459;-83
2022/08/20 08:07:58;;;;;;;3.87;3.57;;;22.30;99.90;;;;;;5052397;28;20482;-83
2022/08/20 08:10:27;;;;;;;4.87;4.47;;;22.50;99.90;;;;;;5052483;28;20492;-83
2022/08/20 08:12:57;;;;;;;3.83;3.53;;;22.50;99.90;;;;;;5053157;28;20572;-83
2022/08/20 08:15:27;;;;;;;3.57;3.37;;;22.80;99.90;;;;;;5052730;28;20454;-83
2022/08/20 08:17:58;;;;;;;4.93;4.63;;;22.90;99.90;;;;;;5052559;28;20456;-83
2022/08/20 08:20:25;;;;;;;4.10;3.70;;;22.90;99.90;;;;;;5052105;28;20445;-82
2022/08/20 08:22:52;;;;;;;5.03;4.63;;;23.10;99.90;;;;;;5052527;28;20479;-83
2022/08/20 08:25:19;;;;;;;4.20;3.80;;;23.20;99.90;;;;;;5051825;28;20464;-83
2022/08/20 08:27:48;;;;;;;3.87;3.67;;;23.20;99.90;;;;;;5051873;28;20452;-83
2022/08/20 08:30:16;;;;;;;3.97;3.67;;;23.10;99.90;;;;;;5052570;28;20484;-83
2022/08/20 08:35:24;;;;;;;4.73;4.43;;;23.10;99.90;;;;;;5051951;28;20433;-83
2022/08/20 08:37:51;;;;;;;3.43;3.23;;;23.20;99.90;;;;;;5052140;28;20813;-83
2022/08/20 08:40:18;;;;;;;3.50;3.20;;;23.30;99.90;;;;;;5052196;28;20910;-83
2022/08/20 08:42:51;;;;;;;4.30;4.07;;;23.40;99.90;;;;;;5052750;28;20472;-85
2022/08/20 08:45:19;;;;;;;3.17;2.97;;;23.70;99.90;;;;;;5052151;28;20868;-85
2022/08/20 08:47:46;;;;;;;3.30;3.10;;;23.80;99.90;;;;;;5051751;28;20453;-83
2022/08/20 08:50:25;;;;;;;3.63;3.30;;;23.90;99.90;;;;;;5052282;28;20484;-83
2022/08/20 08:52:59;;;;;;;3.70;3.50;;;23.90;99.90;;;;;;5053176;28;20478;-83
2022/08/20 08:55:28;;;;;;;3.57;3.37;;;24.20;99.90;;;;;;5051829;28;20437;-83
2022/08/20 08:57:59;;;;;;;3.40;3.20;;;24.30;99.90;;;;;;5051857;28;20445;-83
2022/08/20 09:00:28;;;;;;;2.87;2.67;;;24.30;99.90;;;;;;5051934;28;20446;-84
2022/08/20 09:02:58;;;;;;;3.10;2.90;;;24.30;99.90;;;;;;5051215;28;20465;-83
2022/08/20 09:05:32;;;;;;;3.00;2.80;;;24.30;99.90;;;;;;5051566;28;20458;-85
2022/08/20 09:08:02;;;;;;;3.17;2.97;;;24.30;99.90;;;;;;5050852;28;20438;-84
2022/08/20 09:10:30;;;;;;;3.30;3.00;;;24.30;99.90;;;;;;5051496;28;20485;-83
2022/08/20 09:13:02;;;;;;;3.30;3.10;;;24.50;99.90;;;;;;5051887;28;20469;-84
2022/08/20 09:15:29;;;;;;;2.90;2.70;;;24.60;99.90;;;;;;5053167;28;20950;-84
2022/08/20 09:17:56;;;;;;;3.50;3.30;;;24.60;99.90;;;;;;5051226;28;20463;-84
2022/08/20 09:20:23;;;;;;;3.70;3.20;;;24.60;99.90;;;;;;5051618;28;20441;-84
2022/08/20 09:22:50;;;;;;;3.90;3.60;;;24.50;99.90;;;;;;5049321;28;20476;-84
2022/08/20 09:25:17;;;;;;;4.30;3.93;;;24.40;99.90;;;;;;5051722;28;20448;-84
2022/08/20 09:27:43;;;;;;;3.63;3.13;;;24.20;99.90;;;;;;5051314;28;20450;-84
2022/08/20 09:30:14;;;;;;;3.50;3.20;;;24.00;99.90;;;;;;5050031;28;20495;-84
2022/08/20 09:32:41;;;;;;;3.10;2.90;;;23.70;99.90;;;;;;5050907;28;20570;-84
2022/08/20 09:35:08;;;;;;;3.20;2.90;;;23.60;99.90;;;;;;5050698;28;20452;-83
2022/08/20 09:37:36;;;;;;;3.30;3.10;;;23.50;99.90;;;;;;5050894;28;20464;-84
2022/08/20 09:40:04;;;;;;;2.67;2.47;;;23.60;99.90;;;;;;5051456;28;20532;-84
2022/08/20 09:42:34;;;;;;;2.67;2.57;;;23.30;99.90;;;;;;5049879;28;20477;-84
2022/08/20 09:45:01;;;;;;;2.20;2.10;;;23.30;99.90;;;;;;5051286;28;20452;-83
2022/08/20 09:47:29;;;;;;;2.10;2.00;;;23.10;99.90;;;;;;5050849;28;20455;-83
2022/08/20 09:49:56;;;;;;;1.63;1.53;;;23.10;99.90;;;;;;5050213;28;20453;-84
2022/08/20 09:52:25;;;;;;;1.60;1.50;;;23.00;99.90;;;;;;5050059;28;20523;-83
2022/08/20 09:54:59;;;;;;;2.30;2.20;;;23.00;99.90;;;;;;5049228;28;20460;-84
2022/08/20 09:57:26;;;;;;;1.97;1.87;;;22.80;99.90;;;;;;5049934;28;20448;-84
2022/08/20 09:59:56;;;;;;;2.63;2.43;;;22.90;99.90;;;;;;5049517;28;20454;-83
2022/08/20 10:02:23;;;;;;;2.10;2.00;;;22.90;99.90;;;;;;5050195;28;20497;-84
2022/08/20 10:04:52;;;;;;;3.07;2.87;;;23.10;99.90;;;;;;5051108;28;20451;-84
2022/08/20 10:07:19;;;;;;;2.50;2.30;;;23.20;99.90;;;;;;5050762;28;20473;-84
2022/08/20 10:09:45;;;;;;;2.10;2.00;;;23.40;99.90;;;;;;5050838;28;20449;-84
2022/08/20 10:12:12;;;;;;;2.47;2.37;;;23.30;99.90;;;;;;5050481;28;20511;-83
2022/08/20 10:14:39;;;;;;;2.03;1.93;;;23.20;99.90;;;;;;5050780;28;20467;-83
2022/08/20 10:17:06;;;;;;;2.10;1.90;;;23.00;99.90;;;;;;5050567;28;20480;-84
2022/08/20 10:19:33;;;;;;;1.93;1.83;;;23.10;99.90;;;;;;5050065;28;20484;-84
2022/08/20 10:22:01;;;;;;;2.43;1.90;;;23.10;99.90;;;;;;5050088;28;20560;-84
2022/08/20 10:24:28;;;;;;;2.33;2.23;;;23.00;99.90;;;;;;5050430;28;20467;-84
2022/08/20 10:26:57;;;;;;;2.10;1.90;;;23.10;99.90;;;;;;5049999;28;20458;-84
2022/08/20 10:29:24;;;;;;;1.97;1.87;;;23.00;99.90;;;;;;5050499;28;20536;-84
2022/08/20 10:31:51;;;;;;;2.30;2.10;;;23.00;99.90;;;;;;5050003;28;20489;-83
2022/08/20 10:34:18;;;;;;;2.50;2.40;;;23.10;99.90;;;;;;5080543;22;20499;-83
2022/08/20 10:36:45;;;;;;;2.40;2.20;;;22.80;99.90;;;;;;5057844;28;20450;-83
2022/08/20 10:39:13;;;;;;;3.07;2.87;;;22.80;99.90;;;;;;5057723;28;20454;-83
2022/08/20 10:41:40;;;;;;;1.90;1.80;;;22.80;99.90;;;;;;5058019;28;21028;-83
2022/08/20 10:44:08;;;;;;;1.60;1.50;;;22.60;99.90;;;;;;5057871;28;20451;-82
2022/08/20 10:46:34;;;;;;;1.30;1.10;;;22.50;99.90;;;;;;5057175;28;20947;-83
2022/08/20 10:49:01;;;;;;;0.70;0.70;;;22.40;99.90;;;;;;5057518;28;20474;-83
2022/08/20 10:51:28;;;;;;;0.60;0.60;;;22.20;99.90;;;;;;5057885;28;20485;-83
2022/08/20 10:53:55;;;;;;;0.60;0.60;;;22.00;99.90;;;;;;5060303;28;20482;-82
2022/08/20 10:56:23;;;;;;;0.90;0.90;;;21.80;99.90;;;;;;5061714;28;20444;-83
2022/08/20 10:58:49;;;;;;;0.70;0.70;;;21.70;99.90;;;;;;5067532;28;20446;-83
2022/08/20 11:01:16;;;;;;;0.90;0.70;;;21.60;99.90;;;;;;5066689;28;20449;-83
2022/08/20 11:03:43;;;;;;;0.70;0.70;;;21.60;99.90;;;;;;5061587;28;20468;-82
2022/08/20 11:06:10;;;;;;;0.67;0.67;;;21.60;99.90;;;;;;5061393;28;20467;-82
2022/08/20 11:08:36;;;;;;;0.90;0.90;;;21.80;99.90;;;;;;5061205;28;20446;-83
2022/08/20 11:11:04;;;;;;;0.60;0.60;;;21.90;99.90;;;;;;5062124;28;20488;-83
2022/08/20 11:13:33;;;;;;;0.50;0.50;;;22.10;99.90;;;;;;5062977;28;20471;-83
2022/08/20 11:16:00;;;;;;;0.93;0.83;;;22.30;99.90;;;;;;5068781;28;20440;-83
2022/08/20 11:18:27;;;;;;;0.70;0.70;;;22.30;99.90;;;;;;5067603;28;20442;-83
2022/08/20 11:20:53;;;;;;;0.53;0.53;;;22.40;99.90;;;;;;5061227;28;20454;-83
2022/08/20 11:23:20;;;;;;;0.90;0.73;;;22.40;99.90;;;;;;5061341;28;20971;-82
2022/08/20 11:25:48;;;;;;;0.53;0.50;;;22.30;99.90;;;;;;5061240;28;20832;-83
2022/08/20 11:28:15;;;;;;;1.00;1.00;;;22.00;99.90;;;;;;5060708;28;20448;-83
2022/08/20 11:30:45;;;;;;;0.70;0.63;;;21.60;99.90;;;;;;5063471;28;20483;-82
2022/08/20 11:33:11;;;;;;;0.93;0.93;;;21.20;99.90;;;;;;5061449;28;20879;-83
2022/08/20 11:35:39;;;;;;;0.60;0.60;;;21.10;99.90;;;;;;5060869;28;20479;-83
2022/08/20 11:38:06;;;;;;;1.20;1.10;;;21.10;99.90;;;;;;5062049;28;20444;-83
2022/08/20 11:40:33;;;;;;;1.27;0.70;;;21.10;99.90;;;;;;5061011;28;20444;-83
2022/08/20 11:43:00;;;;;;;0.73;0.73;;;21.10;99.90;;;;;;5060702;28;20473;-83
2022/08/20 11:45:26;;;;;;;1.10;1.03;;;21.10;99.90;;;;;;5060668;28;20456;-83
2022/08/20 11:47:54;;;;;;;0.70;0.70;;;20.90;99.90;;;;;;5060722;28;20442;-82
2022/08/20 11:50:22;;;;;;;1.53;1.43;;;20.90;99.90;;;;;;5060874;28;20455;-82
2022/08/20 11:52:48;;;;;;;0.97;0.97;;;20.90;99.90;;;;;;5060623;28;20479;-82
2022/08/20 11:55:17;;;;;;;1.53;1.43;;;20.80;99.90;;;;;;5069967;28;20463;-82
2022/08/20 11:57:45;;;;;;;1.43;1.33;;;20.90;99.90;;;;;;5062108;28;20443;-82
2022/08/20 12:00:15;;;;;;;1.10;1.10;;;21.00;99.90;;;;;;5061697;28;20460;-82
2022/08/20 12:02:42;;;;;;;1.10;0.97;;;21.20;99.90;;;;;;5061543;28;20791;-82
2022/08/20 12:05:12;;;;;;;1.20;1.17;;;21.40;99.90;;;;;;5061567;28;20964;-82
2022/08/20 12:07:39;;;;;;;0.97;0.97;;;21.40;99.90;;;;;;5061377;28;20453;-82
2022/08/20 12:10:08;;;;;;;2.10;1.20;;;21.60;99.90;;;;;;5061921;28;20437;-82
2022/08/20 12:12:35;;;;;;;1.37;1.07;;;21.80;99.90;;;;;;5060978;28;20520;-82
2022/08/20 12:15:02;;;;;;;0.90;0.90;;;21.90;99.90;;;;;;5061050;28;20449;-82
2022/08/20 12:17:31;;;;;;;1.47;1.37;;;22.00;99.90;;;;;;5062975;28;20502;-83
2022/08/20 12:20:00;;;;;;;1.30;1.20;;;22.00;99.90;;;;;;5061895;28;20453;-83
2022/08/20 12:22:28;;;;;;;0.83;0.83;;;22.20;99.90;;;;;;5062796;28;20527;-83
2022/08/20 12:24:55;;;;;;;1.00;1.00;;;22.30;99.90;;;;;;5062236;28;20458;-82
2022/08/20 12:27:26;;;;;;;1.00;1.00;;;22.50;99.90;;;;;;5061978;28;20448;-83
2022/08/20 12:29:55;;;;;;;1.00;1.00;;;22.70;99.90;;;;;;5061472;28;20460;-83
2022/08/20 12:32:24;;;;;;;1.30;1.27;;;22.90;99.90;;;;;;5061775;28;20478;-82
2022/08/20 12:34:51;;;;;;;0.73;0.73;;;23.10;99.90;;;;;;5060494;28;20463;-81
2022/08/20 12:37:20;;;;;;;0.93;0.93;;;23.40;99.90;;;;;;5058747;28;20462;-81
2022/08/20 12:39:51;;;;;;;1.10;1.07;;;23.60;99.90;;;;;;5057795;28;20452;-81
2022/08/20 12:42:18;;;;;;;1.00;0.90;;;23.70;99.90;;;;;;5058008;28;20962;-81
2022/08/20 12:44:45;;;;;;;1.10;1.10;;;23.90;99.90;;;;;;5058516;28;20444;-81
2022/08/20 12:47:14;;;;;;;0.83;0.83;;;24.30;99.90;;;;;;5057734;28;20456;-81
2022/08/20 12:49:44;;;;;;;1.00;0.90;;;24.50;99.90;;;;;;5069728;28;20453;-81
2022/08/20 12:52:11;;;;;;;1.30;1.20;;;24.90;99.90;;;;;;5058535;28;20484;-81
2022/08/20 12:54:38;;;;;;;0.80;0.80;;;25.20;99.90;;;;;;5059080;28;20469;-81
2022/08/20 12:57:06;;;;;;;0.70;0.70;;;25.60;99.50;;;;;;5058211;28;20825;-81
2022/08/20 12:59:33;;;;;;;0.70;0.70;;;25.90;98.60;;;;;;5059526;28;20476;-82
2022/08/20 13:02:00;;;;;;;0.90;0.90;;;26.00;97.80;;;;;;5059648;28;20456;-81
2022/08/20 13:04:27;;;;;;;0.83;0.83;;;25.90;97.80;;;;;;5059566;28;20476;-82
2022/08/20 13:07:00;;;;;;;0.80;0.80;;;25.40;97.70;;;;;;5059287;28;20455;-82
2022/08/20 13:09:27;;;;;;;0.83;0.83;;;24.60;99.60;;;;;;5058297;28;20452;-82